Time;durP1;ratioP1;P1;durP2;ratioP2;P2;SDS_P1;SDS_P2;PMS_P1;PMS_P2;Temp;Humidity;BMP_temperature;BMP_pressure;BME280_temperature;BME280_humidity;BME280_pressure;Samples;Min_cycle;Max_cycle;Signal;HPM_P1;HPM_P2
2023/11/20 00:01:55;;;;;;;22.77;13.18;;;154.30;2252.80;;;;;;5051697;28;20072;-61
2023/11/20 00:04:21;;;;;;;28.25;16.27;;;154.30;2252.80;;;;;;5051687;28;20036;-67
2023/11/20 00:06:47;;;;;;;45.80;21.25;;;154.30;2252.80;;;;;;5052318;28;20018;-61
2023/11/20 00:09:13;;;;;;;35.88;26.38;;;154.40;2252.80;;;;;;5051714;28;20068;-61
2023/11/20 00:11:38;;;;;;;18.45;15.30;;;154.40;2252.80;;;;;;5033870;28;20060;-60
2023/11/20 00:14:04;;;;;;;15.88;9.65;;;154.40;2252.80;;;;;;5051606;28;20456;-66
2023/11/20 00:16:30;;;;;;;15.30;9.35;;;154.30;2252.80;;;;;;5051466;28;20048;-67
2023/11/20 00:18:56;;;;;;;13.07;6.82;;;154.20;2252.80;;;;;;5052088;28;20021;-67
2023/11/20 00:21:21;;;;;;;16.50;9.60;;;154.10;2252.80;;;;;;5051911;28;20017;-65
2023/11/20 00:23:47;;;;;;;38.35;10.73;;;154.10;2252.80;;;;;;5051163;28;20060;-60
2023/11/20 00:26:16;;;;;;;19.92;13.07;;;154.10;2252.80;;;;;;5051207;28;20066;-67
2023/11/20 00:28:44;;;;;;;14.90;10.40;;;154.30;2252.80;;;;;;5051641;28;20033;-66
2023/11/20 00:31:16;;;;;;;32.42;21.98;;;154.40;2252.80;;;;;;5051141;28;20040;-67
2023/11/20 00:33:42;;;;;;;47.25;35.65;;;154.40;2252.80;;;;;;5051502;28;20028;-67
2023/11/20 00:36:09;;;;;;;20.33;12.40;;;154.50;2252.80;;;;;;5050604;28;20482;-63
2023/11/20 00:38:35;;;;;;;12.20;6.78;;;179.20;2252.80;;;;;;5051053;28;20648;-60
2023/11/20 00:41:02;;;;;;;8.93;6.30;;;179.20;2252.80;;;;;;5049968;28;20029;-61
2023/11/20 00:43:28;;;;;;;10.70;5.60;;;179.20;2252.80;;;;;;5050711;28;20025;-61
2023/11/20 00:45:54;;;;;;;10.18;5.78;;;179.20;2252.80;;;;;;5051452;28;20029;-65
2023/11/20 00:48:20;;;;;;;6.57;4.50;;;179.70;2252.80;;;;;;5051381;28;20417;-63
2023/11/20 00:50:45;;;;;;;11.13;5.60;;;179.40;2252.80;;;;;;5051201;28;20033;-64
2023/11/20 00:53:11;;;;;;;7.13;4.75;;;179.40;2252.80;;;;;;5051658;28;20021;-64
2023/11/20 00:55:37;;;;;;;15.88;10.57;;;179.50;2252.80;;;;;;5051663;28;20032;-62
2023/11/20 00:58:02;;;;;;;24.42;15.60;;;179.50;2252.80;;;;;;5051780;28;20643;-62
2023/11/20 01:00:28;;;;;;;82.57;45.03;;;179.60;2252.80;;;;;;5051571;28;20053;-61
2023/11/20 01:02:54;;;;;;;57.65;27.90;;;179.60;2252.80;;;;;;5051656;28;20495;-61
2023/11/20 01:05:22;;;;;;;22.63;14.90;;;179.50;2252.80;;;;;;5051643;28;20071;-63
2023/11/20 01:07:48;;;;;;;23.60;12.88;;;179.50;2252.80;;;;;;5051676;28;20096;-62
2023/11/20 01:10:14;;;;;;;22.50;12.32;;;179.40;2252.80;;;;;;5051581;28;20040;-62
2023/11/20 01:12:39;;;;;;;19.25;12.23;;;179.50;2252.80;;;;;;5051340;28;20036;-62
2023/11/20 01:15:06;;;;;;;20.50;12.10;;;179.60;2252.80;;;;;;5051377;28;20427;-63
2023/11/20 01:17:32;;;;;;;23.27;14.65;;;179.70;2252.80;;;;;;5051540;28;20132;-61
2023/11/20 01:19:57;;;;;;;21.13;15.57;;;179.80;2252.80;;;;;;5051251;28;20077;-62
2023/11/20 01:22:23;;;;;;;18.75;11.88;;;179.80;2252.80;;;;;;5051438;28;20025;-61
2023/11/20 01:24:50;;;;;;;12.00;8.93;;;179.80;2252.80;;;;;;5051235;28;20029;-62
2023/11/20 01:27:15;;;;;;;21.30;15.10;;;179.80;2252.80;;;;;;5051293;28;20060;-62
2023/11/20 01:29:41;;;;;;;19.20;13.63;;;179.80;2252.80;;;;;;5051611;28;20087;-61
2023/11/20 01:32:07;;;;;;;14.25;10.98;;;179.90;2252.80;;;;;;5051114;28;20052;-62
2023/11/20 01:34:32;;;;;;;12.25;8.10;;;179.80;2252.80;;;;;;5051214;28;20048;-62
2023/11/20 01:36:58;;;;;;;12.43;7.20;;;179.80;2252.80;;;;;;5051007;28;20067;-62
2023/11/20 01:39:24;;;;;;;10.35;6.55;;;179.70;2252.80;;;;;;5051848;28;20155;-62
2023/11/20 01:41:50;;;;;;;11.45;8.60;;;179.90;2252.80;;;;;;5051987;28;20063;-62
2023/11/20 01:44:16;;;;;;;19.02;11.50;;;179.70;2252.80;;;;;;5051977;28;20021;-62
2023/11/20 01:46:42;;;;;;;15.00;10.93;;;179.90;2252.80;;;;;;5051266;28;20465;-62
2023/11/20 01:49:08;;;;;;;17.77;12.55;;;180.00;2252.80;;;;;;5050894;28;20040;-62
2023/11/20 01:51:35;;;;;;;20.63;17.45;;;180.00;2252.80;;;;;;5050676;28;20101;-62
2023/11/20 01:54:02;;;;;;;15.02;10.95;;;180.00;2252.80;;;;;;5050654;28;20025;-62
2023/11/20 01:56:31;;;;;;;21.58;17.58;;;180.00;2252.80;;;;;;5050673;28;20039;-61
2023/11/20 01:59:00;;;;;;;26.45;18.10;;;180.10;2252.80;;;;;;5050726;28;20105;-62
2023/11/20 02:01:27;;;;;;;19.08;11.88;;;204.80;2252.80;;;;;;5050418;28;20100;-64
2023/11/20 02:04:00;;;;;;;10.43;6.22;;;204.80;2252.80;;;;;;5050435;28;20057;-63
2023/11/20 02:06:27;;;;;;;9.88;5.38;;;204.80;2252.80;;;;;;5048050;28;20079;-66
2023/11/20 02:08:53;;;;;;;9.88;7.28;;;204.80;2252.80;;;;;;5048776;28;20159;-62
2023/11/20 02:11:19;;;;;;;9.82;6.93;;;180.10;2252.80;;;;;;5048885;28;20103;-68
2023/11/20 02:13:45;;;;;;;11.55;6.63;;;180.10;2252.80;;;;;;5049125;28;20033;-62
2023/11/20 02:16:11;;;;;;;9.52;5.72;;;180.10;2252.80;;;;;;5048827;28;20423;-64
2023/11/20 02:18:37;;;;;;;8.05;4.75;;;179.90;2252.80;;;;;;5048213;28;20040;-65
2023/11/20 02:21:04;;;;;;;6.70;4.40;;;180.00;2252.80;;;;;;5048809;28;20021;-63
2023/11/20 02:23:30;;;;;;;7.35;3.67;;;179.90;2252.80;;;;;;5048655;28;20025;-62
2023/11/20 02:26:17;;;;;;;7.45;4.60;;;180.00;2252.80;;;;;;5048540;28;20032;-62
2023/11/20 02:29:05;;;;;;;7.15;4.13;;;204.80;2252.80;;;;;;5048803;28;20121;-62
2023/11/20 02:31:33;;;;;;;6.50;4.60;;;205.00;2252.80;;;;;;5048157;28;20148;-65
2023/11/20 02:34:02;;;;;;;8.38;5.38;;;205.00;2252.80;;;;;;5048308;28;20025;-65
2023/11/20 02:36:28;;;;;;;14.25;6.97;;;204.90;2252.80;;;;;;5048358;28;20491;-61
2023/11/20 02:38:54;;;;;;;7.45;4.97;;;204.80;2252.80;;;;;;5048563;28;20071;-62
2023/11/20 02:41:20;;;;;;;8.20;5.28;;;205.00;2252.80;;;;;;5048389;28;20036;-62
2023/11/20 02:43:46;;;;;;;6.97;4.78;;;205.10;2252.80;;;;;;5048151;28;20498;-63
2023/11/20 02:46:12;;;;;;;13.30;8.95;;;205.00;2252.80;;;;;;5047888;28;20032;-63
2023/11/20 02:48:39;;;;;;;23.45;15.20;;;180.10;2252.80;;;;;;5048073;28;20033;-65
2023/11/20 02:51:05;;;;;;;34.63;19.52;;;179.80;2252.80;;;;;;5048257;28;20017;-62
2023/11/20 02:53:31;;;;;;;18.77;14.73;;;179.90;2252.80;;;;;;5048499;28;20108;-65
2023/11/20 02:55:57;;;;;;;11.93;6.95;;;179.70;2252.80;;;;;;5048649;28;20166;-62
2023/11/20 02:58:23;;;;;;;11.10;7.00;;;179.60;2252.80;;;;;;5047590;28;20583;-62
2023/11/20 03:00:49;;;;;;;8.80;5.75;;;179.70;2252.80;;;;;;5047856;28;20387;-65
2023/11/20 03:03:15;;;;;;;7.07;5.15;;;179.80;2252.80;;;;;;5047364;28;20053;-64
2023/11/20 03:05:44;;;;;;;9.52;7.10;;;179.90;2252.80;;;;;;5047936;28;20024;-65
2023/11/20 03:08:11;;;;;;;63.03;33.70;;;179.90;2252.80;;;;;;5048038;28;20025;-63
2023/11/20 03:10:36;;;;;;;43.28;27.38;;;180.00;2252.80;;;;;;5047563;28;20032;-61
2023/11/20 03:13:03;;;;;;;13.52;9.38;;;180.00;2252.80;;;;;;5048000;28;20021;-62
2023/11/20 03:15:28;;;;;;;10.77;7.53;;;180.00;2252.80;;;;;;5047688;28;20078;-65
2023/11/20 03:17:54;;;;;;;8.65;5.25;;;180.00;2252.80;;;;;;5048078;28;20028;-62
2023/11/20 03:20:23;;;;;;;11.65;4.63;;;180.10;2252.80;;;;;;5047706;28;20021;-64
2023/11/20 03:22:50;;;;;;;8.18;4.18;;;180.00;2252.80;;;;;;5047874;28;20063;-62
2023/11/20 03:25:16;;;;;;;9.15;6.15;;;180.00;2252.80;;;;;;5047689;28;20495;-62
2023/11/20 03:27:42;;;;;;;10.50;5.30;;;180.00;2252.80;;;;;;5047859;28;20468;-62
2023/11/20 03:30:09;;;;;;;12.65;7.18;;;180.00;2252.80;;;;;;5047329;28;20037;-62
2023/11/20 03:32:38;;;;;;;18.33;9.82;;;179.90;2252.80;;;;;;5047979;28;20548;-61
2023/11/20 03:35:07;;;;;;;6.97;3.92;;;179.90;2252.80;;;;;;5047690;28;20032;-63
2023/11/20 03:37:34;;;;;;;21.08;12.38;;;179.70;2252.80;;;;;;5047555;28;20028;-62
2023/11/20 03:40:00;;;;;;;25.42;14.40;;;180.10;2252.80;;;;;;5047581;28;20091;-61
2023/11/20 03:42:25;;;;;;;22.85;15.00;;;180.10;2252.80;;;;;;5047739;28;20021;-63
2023/11/20 03:44:54;;;;;;;19.80;12.70;;;204.80;2252.80;;;;;;5047550;28;20120;-61
2023/11/20 03:47:20;;;;;;;16.10;10.40;;;204.90;2252.80;;;;;;5047585;28;20075;-61
2023/11/20 03:49:46;;;;;;;9.20;5.38;;;205.00;2252.80;;;;;;5047105;28;20289;-66
2023/11/20 03:52:12;;;;;;;10.20;7.00;;;205.00;2252.80;;;;;;5047941;28;20112;-62
2023/11/20 03:54:37;;;;;;;6.22;4.60;;;205.10;2252.80;;;;;;5047453;28;20112;-60
2023/11/20 03:57:03;;;;;;;3.60;2.17;;;205.10;2252.80;;;;;;5047697;28;20035;-61
2023/11/20 03:59:29;;;;;;;8.25;3.95;;;205.20;2252.80;;;;;;5047371;28;20590;-63
2023/11/20 04:01:55;;;;;;;7.97;3.72;;;205.20;2252.80;;;;;;5047461;28;20041;-60
2023/11/20 04:04:20;;;;;;;9.73;4.55;;;205.30;2252.80;;;;;;5046818;28;20064;-62
2023/11/20 04:06:46;;;;;;;6.97;4.13;;;205.40;2252.80;;;;;;5047243;28;20025;-64
2023/11/20 04:09:12;;;;;;;6.80;4.30;;;205.40;2252.80;;;;;;5047529;28;20045;-62
2023/11/20 04:11:39;;;;;;;5.35;3.08;;;205.40;2252.80;;;;;;5047420;28;20100;-65
2023/11/20 04:14:05;;;;;;;9.15;3.53;;;205.30;2252.80;;;;;;5047768;28;20074;-63
2023/11/20 04:16:31;;;;;;;7.32;3.97;;;205.30;2252.80;;;;;;5050669;28;20399;-62
2023/11/20 04:18:57;;;;;;;8.85;4.90;;;205.30;2252.80;;;;;;5050961;28;20399;-63
2023/11/20 04:21:23;;;;;;;20.83;10.55;;;205.50;2252.80;;;;;;5051198;28;20122;-61
2023/11/20 04:23:48;;;;;;;14.70;8.23;;;205.40;2252.80;;;;;;5050769;28;20025;-60
2023/11/20 04:26:14;;;;;;;13.95;9.73;;;205.20;2252.80;;;;;;5051164;28;20029;-64
2023/11/20 04:28:40;;;;;;;12.32;8.73;;;205.20;2252.80;;;;;;5050401;28;20407;-62
2023/11/20 04:31:06;;;;;;;13.65;7.40;;;205.00;2252.80;;;;;;5050829;28;20111;-60
2023/11/20 04:33:32;;;;;;;10.82;6.80;;;205.10;2252.80;;;;;;5050927;28;20025;-62
2023/11/20 04:36:02;;;;;;;11.65;7.18;;;205.10;2252.80;;;;;;5050584;28;20025;-62
2023/11/20 04:38:30;;;;;;;19.38;8.65;;;205.00;2252.80;;;;;;5032716;28;20483;-62
2023/11/20 04:40:56;;;;;;;13.13;6.65;;;205.00;2252.80;;;;;;5050696;28;20021;-61
2023/11/20 04:43:23;;;;;;;20.17;10.43;;;204.80;2252.80;;;;;;5050079;28;20476;-61
2023/11/20 04:45:49;;;;;;;9.60;5.45;;;205.10;2252.80;;;;;;5050439;28;20028;-62
2023/11/20 04:48:16;;;;;;;10.57;5.10;;;205.30;2252.80;;;;;;5052149;28;20032;-62
2023/11/20 04:50:42;;;;;;;7.10;4.03;;;205.30;2252.80;;;;;;5052656;28;20113;-62
2023/11/20 04:53:08;;;;;;;6.35;2.90;;;205.30;2252.80;;;;;;5051118;28;20044;-61
2023/11/20 04:55:34;;;;;;;22.60;11.30;;;205.40;2252.80;;;;;;5050135;28;20033;-63
2023/11/20 04:58:00;;;;;;;20.27;10.38;;;205.50;2252.80;;;;;;5050222;28;20029;-62
2023/11/20 05:00:26;;;;;;;29.38;21.17;;;205.50;2252.80;;;;;;5050135;28;20024;-62
2023/11/20 05:02:52;;;;;;;10.80;9.68;;;205.60;2252.80;;;;;;5050131;28;20517;-62
2023/11/20 05:05:18;;;;;;;5.65;3.70;;;205.60;2252.80;;;;;;5050049;28;20093;-66
2023/11/20 05:07:44;;;;;;;3.95;2.63;;;205.60;2252.80;;;;;;5049891;28;20036;-63
2023/11/20 05:10:10;;;;;;;7.18;3.45;;;205.50;2252.80;;;;;;5050159;28;20529;-65
2023/11/20 05:12:36;;;;;;;9.15;3.67;;;205.50;2252.80;;;;;;5049980;28;20383;-61
2023/11/20 05:15:03;;;;;;;8.15;4.68;;;205.40;2252.80;;;;;;5050128;28;20025;-62
2023/11/20 05:17:28;;;;;;;8.38;5.00;;;205.30;2252.80;;;;;;5050061;28;20107;-62
2023/11/20 05:19:57;;;;;;;24.10;19.00;;;205.30;2252.80;;;;;;5049867;28;20121;-63
2023/11/20 05:22:25;;;;;;;11.50;6.95;;;205.30;2252.80;;;;;;5049580;28;20446;-62
2023/11/20 05:24:50;;;;;;;17.50;15.82;;;205.30;2252.80;;;;;;5049881;28;20029;-67
2023/11/20 05:27:16;;;;;;;11.80;8.07;;;205.30;2252.80;;;;;;5048922;28;20577;-63
2023/11/20 05:29:43;;;;;;;15.20;9.90;;;205.30;2252.80;;;;;;5049598;28;20044;-67
2023/11/20 05:32:08;;;;;;;13.23;6.72;;;205.30;2252.80;;;;;;5049675;28;20554;-67
2023/11/20 05:34:34;;;;;;;8.35;4.75;;;205.20;2252.80;;;;;;5049341;28;20120;-63
2023/11/20 05:37:00;;;;;;;12.52;6.68;;;205.10;2252.80;;;;;;5049398;28;20044;-63
2023/11/20 05:39:26;;;;;;;37.58;21.88;;;205.10;2252.80;;;;;;5049760;28;20028;-61
2023/11/20 05:41:52;;;;;;;48.60;30.25;;;205.30;2252.80;;;;;;5049721;28;20825;-62
2023/11/20 05:44:21;;;;;;;24.67;13.57;;;205.30;2252.80;;;;;;5049338;28;20021;-61
2023/11/20 05:46:47;;;;;;;13.63;7.97;;;205.30;2252.80;;;;;;5049242;28;20098;-63
2023/11/20 05:49:13;;;;;;;10.82;6.60;;;205.40;2252.80;;;;;;5049092;28;20735;-62
2023/11/20 05:51:38;;;;;;;8.70;5.35;;;205.30;2252.80;;;;;;5049186;28;20051;-66
2023/11/20 05:54:08;;;;;;;9.02;5.35;;;205.30;2252.80;;;;;;5049465;28;20472;-61
2023/11/20 05:56:37;;;;;;;10.73;6.00;;;205.40;2252.80;;;;;;5049431;28;20036;-67
2023/11/20 05:59:03;;;;;;;21.10;12.13;;;205.70;2252.80;;;;;;5049428;28;20075;-62
2023/11/20 06:01:39;;;;;;;5.65;3.72;;;230.40;2252.80;;;;;;5047602;28;20033;-65
2023/11/20 06:04:06;;;;;;;6.93;5.10;;;230.40;2252.80;;;;;;5049221;28;20081;-62
2023/11/20 06:06:32;;;;;;;31.98;22.42;;;230.50;2252.80;;;;;;5050295;28;20428;-61
2023/11/20 06:08:58;;;;;;;16.63;8.43;;;230.50;2252.80;;;;;;5050872;28;20072;-61
2023/11/20 06:11:24;;;;;;;14.40;9.43;;;230.50;2252.80;;;;;;5048973;28;20032;-61
2023/11/20 06:13:50;;;;;;;16.00;12.02;;;230.40;2252.80;;;;;;5048758;28;20378;-61
2023/11/20 06:16:16;;;;;;;15.30;9.57;;;230.40;2252.80;;;;;;5049035;28;20980;-63
2023/11/20 06:18:42;;;;;;;12.05;6.88;;;230.40;2252.80;;;;;;5048831;28;20490;-63
2023/11/20 06:21:08;;;;;;;8.35;5.45;;;230.40;2252.80;;;;;;5048631;28;20235;-63
2023/11/20 06:23:35;;;;;;;7.55;5.60;;;230.40;2252.80;;;;;;5048850;28;20479;-64
2023/11/20 06:26:01;;;;;;;9.07;5.65;;;230.40;2252.80;;;;;;5048475;28;20036;-64
2023/11/20 06:28:27;;;;;;;9.90;5.38;;;230.40;2252.80;;;;;;5048394;28;20501;-63
2023/11/20 06:30:53;;;;;;;9.18;5.60;;;230.60;2252.80;;;;;;5048851;28;20456;-62
2023/11/20 06:33:21;;;;;;;10.25;5.45;;;230.60;2252.80;;;;;;5048477;28;20116;-63
2023/11/20 06:35:47;;;;;;;17.65;11.48;;;230.70;2252.80;;;;;;5051474;28;20026;-63
2023/11/20 06:38:13;;;;;;;20.70;9.70;;;230.90;2252.80;;;;;;5047993;28;20042;-62
2023/11/20 06:40:41;;;;;;;16.58;8.20;;;230.90;2252.80;;;;;;5048948;28;20067;-61
2023/11/20 06:43:08;;;;;;;52.67;29.23;;;231.00;2252.80;;;;;;5049741;28;20021;-61
2023/11/20 06:45:35;;;;;;;47.92;28.48;;;256.00;2252.80;;;;;;5049292;28;20059;-63
2023/11/20 06:48:01;;;;;;;32.40;19.42;;;256.20;2252.80;;;;;;5048128;28;20021;-62
2023/11/20 06:50:27;;;;;;;16.85;8.13;;;256.30;2252.80;;;;;;5047808;28;20520;-61
2023/11/20 06:52:54;;;;;;;10.85;6.50;;;256.20;2252.80;;;;;;5047657;28;20373;-60
2023/11/20 06:55:21;;;;;;;9.73;6.15;;;256.30;2252.80;;;;;;5048079;28;20032;-61
2023/11/20 06:57:47;;;;;;;10.20;7.32;;;256.20;2252.80;;;;;;5048014;28;20094;-61
2023/11/20 07:00:13;;;;;;;125.85;84.20;;;256.30;2252.80;;;;;;5048131;28;20067;-61
2023/11/20 07:02:39;;;;;;;220.63;155.93;;;256.60;2252.80;;;;;;5047932;28;20055;-60
2023/11/20 07:05:07;;;;;;;51.97;41.95;;;256.90;2252.80;;;;;;5047572;28;20028;-60
2023/11/20 07:07:40;;;;;;;73.78;53.10;;;281.60;2278.40;;;;;;5048229;28;20115;-62
2023/11/20 07:10:11;;;;;;;173.45;139.48;;;256.90;2252.80;;;;;;5048149;28;20052;-60
2023/11/20 07:12:41;;;;;;;186.32;149.38;;;281.60;2278.40;;;;;;5048001;28;20027;-65
2023/11/20 07:15:07;;;;;;;45.63;34.70;;;281.80;2278.40;;;;;;5048212;28;20065;-61
2023/11/20 07:17:35;;;;;;;34.53;25.85;;;282.00;2278.40;;;;;;5047602;28;20036;-64
2023/11/20 07:20:02;;;;;;;31.38;24.58;;;282.30;2278.40;;;;;;5047742;28;20483;-61
2023/11/20 07:22:28;;;;;;;22.10;16.77;;;282.50;2278.40;;;;;;5047900;28;20110;-62
2023/11/20 07:24:54;;;;;;;17.27;9.68;;;282.20;2278.40;;;;;;5047956;28;20048;-61
2023/11/20 07:27:20;;;;;;;16.10;9.57;;;282.20;2278.40;;;;;;5047753;28;20029;-60
2023/11/20 07:29:46;;;;;;;15.10;9.65;;;282.10;2278.40;;;;;;5047137;28;20037;-61
2023/11/20 07:32:12;;;;;;;10.13;8.23;;;282.30;2278.40;;;;;;5047756;28;20108;-62
2023/11/20 07:34:38;;;;;;;10.38;7.63;;;282.20;2278.40;;;;;;5047638;28;20474;-61
2023/11/20 07:37:04;;;;;;;8.70;5.68;;;307.20;2304.00;;;;;;5047555;28;20021;-62
2023/11/20 07:39:30;;;;;;;12.98;11.65;;;333.10;2329.60;;;;;;5047410;28;20035;-61
2023/11/20 07:41:56;;;;;;;11.20;8.90;;;359.10;2329.60;;;;;;5047497;28;20467;-62
2023/11/20 07:44:22;;;;;;;11.88;10.43;;;384.90;2329.60;;;;;;5046907;28;20463;-61
2023/11/20 07:46:48;;;;;;;59.22;50.13;;;435.70;2150.40;;;;;;5047293;28;20017;-61
2023/11/20 07:49:14;;;;;;;78.47;67.30;;;436.10;2124.80;;;;;;5047760;28;20037;-62
2023/11/20 07:51:40;;;;;;;49.35;43.13;;;461.20;2099.20;;;;;;5051052;28;20589;-60
2023/11/20 07:54:08;;;;;;;24.13;21.70;;;486.60;1996.80;;;;;;5051265;28;20037;-62
2023/11/20 07:56:34;;;;;;;28.25;23.88;;;512.00;1894.40;;;;;;5050887;28;20017;-62
2023/11/20 07:59:00;;;;;;;20.40;17.77;;;512.90;1817.60;;;;;;5051000;28;20562;-62
2023/11/20 08:01:26;;;;;;;16.27;14.52;;;537.60;1792.00;;;;;;5050987;28;20108;-62
2023/11/20 08:03:52;;;;;;;30.70;24.75;;;538.20;1792.00;;;;;;5051376;28;20132;-62
2023/11/20 08:06:19;;;;;;;99.22;88.40;;;538.50;1766.40;;;;;;5051181;28;20025;-62
2023/11/20 08:08:45;;;;;;;79.18;64.40;;;486.90;1868.80;;;;;;5050919;28;20029;-65
2023/11/20 08:11:11;;;;;;;116.32;103.80;;;486.40;1920.00;;;;;;5051769;28;20044;-63
2023/11/20 08:13:37;;;;;;;95.07;79.45;;;461.70;1920.00;;;;;;5052924;28;20364;-62
2023/11/20 08:16:03;;;;;;;107.53;89.63;;;486.70;1868.80;;;;;;5052500;28;20130;-64
2023/11/20 08:18:29;;;;;;;109.63;90.80;;;487.20;1843.20;;;;;;5051844;28;20480;-62
2023/11/20 08:20:55;;;;;;;117.82;96.60;;;486.60;1894.40;;;;;;5052378;28;20021;-62
2023/11/20 08:23:22;;;;;;;76.63;62.72;;;512.00;1843.20;;;;;;5052743;28;20052;-63
2023/11/20 08:25:48;;;;;;;122.65;104.20;;;512.10;1792.00;;;;;;5052011;28;20025;-67
2023/11/20 08:28:13;;;;;;;48.72;38.47;;;487.20;1843.20;;;;;;5052338;28;20044;-67
2023/11/20 08:30:39;;;;;;;54.58;47.85;;;461.70;1894.40;;;;;;5051432;28;20055;-66
2023/11/20 08:33:07;;;;;;;43.88;36.65;;;486.50;1894.40;;;;;;5052409;28;20025;-66
2023/11/20 08:35:34;;;;;;;77.53;68.47;;;486.40;1868.80;;;;;;5052158;28;20032;-66
2023/11/20 08:38:00;;;;;;;49.67;42.10;;;461.30;1920.00;;;;;;5051914;28;20071;-66
2023/11/20 08:40:26;;;;;;;36.55;31.25;;;461.30;1920.00;;;;;;5051878;28;20434;-66
2023/11/20 08:42:52;;;;;;;44.40;38.00;;;461.50;1894.40;;;;;;5052382;28;20017;-66
2023/11/20 08:45:19;;;;;;;53.25;41.97;;;486.40;1868.80;;;;;;5051847;28;20480;-66
2023/11/20 08:47:45;;;;;;;50.00;35.28;;;487.10;1817.60;;;;;;5052131;28;20017;-66
2023/11/20 08:50:12;;;;;;;67.00;51.83;;;486.60;1817.60;;;;;;5051614;28;20490;-68
2023/11/20 08:52:38;;;;;;;62.53;52.55;;;461.60;1868.80;;;;;;5051851;28;20025;-68
2023/11/20 08:55:05;;;;;;;91.60;74.70;;;461.30;1894.40;;;;;;5051487;28;20036;-68
2023/11/20 08:57:31;;;;;;;100.60;75.43;;;461.20;1945.60;;;;;;5051155;28;20413;-67
2023/11/20 08:59:57;;;;;;;109.82;86.03;;;461.00;1996.80;;;;;;5051367;28;20029;-67
2023/11/20 09:02:24;;;;;;;104.68;84.03;;;460.90;2022.40;;;;;;5050319;28;20184;-67
2023/11/20 09:04:49;;;;;;;110.55;80.80;;;460.90;2022.40;;;;;;5051556;28;20037;-67
2023/11/20 09:07:15;;;;;;;113.07;86.18;;;436.10;1996.80;;;;;;5051576;28;20032;-67
2023/11/20 09:09:41;;;;;;;124.25;89.75;;;435.90;2022.40;;;;;;5051254;28;20028;-65
2023/11/20 09:12:08;;;;;;;138.15;103.70;;;436.10;2022.40;;;;;;5051315;28;20040;-66
2023/11/20 09:14:33;;;;;;;120.50;87.45;;;461.10;2022.40;;;;;;5051385;28;20028;-66
2023/11/20 09:17:00;;;;;;;92.55;70.55;;;461.30;1996.80;;;;;;5051228;28;20039;-67
2023/11/20 09:19:26;;;;;;;124.22;98.38;;;461.60;1945.60;;;;;;5051337;28;20025;-66
2023/11/20 09:21:52;;;;;;;117.07;94.20;;;461.20;1996.80;;;;;;5051495;28;20052;-67
2023/11/20 09:24:18;;;;;;;123.75;100.20;;;461.30;1996.80;;;;;;5051139;28;20420;-66
2023/11/20 09:26:44;;;;;;;144.75;105.95;;;461.40;2022.40;;;;;;5051424;28;20530;-68
2023/11/20 09:29:10;;;;;;;132.32;106.15;;;461.50;2048.00;;;;;;5050895;28;20041;-66
2023/11/20 09:31:36;;;;;;;154.90;121.85;;;461.50;2022.40;;;;;;5051232;28;20025;-67
2023/11/20 09:34:03;;;;;;;120.70;96.05;;;461.40;1996.80;;;;;;5051209;28;20451;-67
2023/11/20 09:36:29;;;;;;;154.85;126.22;;;486.40;1996.80;;;;;;5051023;28;20031;-67
2023/11/20 09:38:55;;;;;;;170.60;142.05;;;461.70;1996.80;;;;;;5050921;28;20035;-65
2023/11/20 09:41:21;;;;;;;154.90;125.93;;;486.40;2022.40;;;;;;5051376;28;20029;-65
2023/11/20 09:43:49;;;;;;;107.45;85.00;;;486.40;1996.80;;;;;;5050951;28;20375;-67
2023/11/20 09:46:18;;;;;;;83.40;61.55;;;486.40;1945.60;;;;;;5050905;28;20090;-65
2023/11/20 09:48:47;;;;;;;101.43;79.57;;;461.60;1945.60;;;;;;5050819;28;20032;-66
2023/11/20 09:51:17;;;;;;;65.53;53.85;;;486.50;1945.60;;;;;;5050413;28;20033;-65
2023/11/20 09:53:42;;;;;;;42.25;35.20;;;486.70;1894.40;;;;;;5050539;28;20033;-66
2023/11/20 09:56:09;;;;;;;32.63;25.05;;;461.70;1894.40;;;;;;5050311;28;20467;-65
2023/11/20 09:58:36;;;;;;;27.52;22.30;;;461.70;1894.40;;;;;;5050669;28;20036;-65
2023/11/20 10:01:10;;;;;;;15.55;13.30;;;461.70;1894.40;;;;;;5050556;28;20027;-65
2023/11/20 10:03:39;;;;;;;14.57;9.25;;;461.50;1843.20;;;;;;5050341;28;20419;-64
2023/11/20 10:06:10;;;;;;;13.05;10.13;;;461.50;1868.80;;;;;;5050607;28;20481;-65
2023/11/20 10:08:40;;;;;;;14.00;8.63;;;486.40;1868.80;;;;;;5050228;28;20029;-65
2023/11/20 10:11:07;;;;;;;12.32;7.60;;;486.50;1843.20;;;;;;5050293;28;20033;-65
2023/11/20 10:13:34;;;;;;;8.40;6.20;;;486.50;1817.60;;;;;;5049940;28;20029;-65
2023/11/20 10:16:00;;;;;;;12.57;9.48;;;486.60;1817.60;;;;;;5049777;28;20033;-65
2023/11/20 10:18:27;;;;;;;13.27;10.55;;;486.50;1792.00;;;;;;5050114;28;20071;-65
2023/11/20 10:20:52;;;;;;;18.75;14.10;;;486.50;1792.00;;;;;;5050055;28;20082;-66
2023/11/20 10:23:20;;;;;;;28.42;18.05;;;461.60;1843.20;;;;;;5050147;28;20021;-66
2023/11/20 10:25:47;;;;;;;8.00;6.88;;;486.40;1843.20;;;;;;5050133;28;20450;-66
2023/11/20 10:28:14;;;;;;;12.85;10.88;;;486.40;1792.00;;;;;;5050157;28;20032;-66
2023/11/20 10:30:44;;;;;;;8.70;6.13;;;486.40;1792.00;;;;;;5049516;28;20368;-66
2023/11/20 10:33:17;;;;;;;112.05;74.25;;;461.70;1817.60;;;;;;5049886;28;20032;-66
2023/11/20 10:35:44;;;;;;;15.23;9.93;;;461.50;1817.60;;;;;;5065309;28;20025;-66
2023/11/20 10:38:13;;;;;;;9.30;7.90;;;461.60;1817.60;;;;;;5049856;28;20086;-66
2023/11/20 10:40:48;;;;;;;6.10;4.63;;;461.70;1792.00;;;;;;5049799;28;20523;-64
2023/11/20 10:43:14;;;;;;;3.72;2.83;;;461.50;1817.60;;;;;;5050003;28;20464;-65
2023/11/20 10:45:40;;;;;;;4.07;2.50;;;461.50;1817.60;;;;;;5049106;28;20033;-63
2023/11/20 10:48:07;;;;;;;6.43;4.28;;;461.60;1817.60;;;;;;5048640;28;20021;-63
2023/11/20 10:50:37;;;;;;;21.60;18.42;;;461.60;1792.00;;;;;;5049568;28;20119;-63
2023/11/20 10:53:07;;;;;;;5.95;4.75;;;461.60;1817.60;;;;;;5049544;28;20486;-64
2023/11/20 10:55:49;;;;;;;8.93;7.75;;;461.50;1817.60;;;;;;5048734;28;20037;-63
2023/11/20 10:58:16;;;;;;;12.27;10.45;;;461.40;1792.00;;;;;;5049052;28;20032;-65
2023/11/20 11:00:42;;;;;;;7.50;3.47;;;461.40;1817.60;;;;;;5048746;28;20048;-65
2023/11/20 11:03:11;;;;;;;7.68;4.03;;;461.20;1817.60;;;;;;5048728;28;20495;-64
2023/11/20 11:05:39;;;;;;;11.85;7.35;;;461.20;1817.60;;;;;;5048850;28;20029;-64
2023/11/20 11:08:09;;;;;;;6.00;4.25;;;461.20;1817.60;;;;;;5049544;28;20029;-64
2023/11/20 11:10:40;;;;;;;4.95;2.95;;;461.10;1843.20;;;;;;5049323;28;20553;-65
2023/11/20 11:13:10;;;;;;;13.02;5.78;;;461.00;1843.20;;;;;;5049361;28;20071;-64
2023/11/20 11:15:37;;;;;;;14.32;7.68;;;460.90;1843.20;;;;;;5049235;28;20236;-64
2023/11/20 11:18:04;;;;;;;5.63;3.65;;;460.80;1843.20;;;;;;5049842;28;20021;-64
2023/11/20 11:20:39;;;;;;;5.53;3.72;;;461.00;1843.20;;;;;;5048945;28;20032;-65
2023/11/20 11:23:10;;;;;;;3.22;2.25;;;461.00;1843.20;;;;;;5049504;28;20155;-64
2023/11/20 11:25:46;;;;;;;4.85;3.28;;;461.10;1843.20;;;;;;5048659;28;20079;-65
2023/11/20 11:28:16;;;;;;;3.85;2.28;;;461.20;1843.20;;;;;;5049497;28;20353;-65
2023/11/20 11:30:46;;;;;;;5.80;3.95;;;461.10;1843.20;;;;;;5048957;28;20556;-65
2023/11/20 11:33:37;;;;;;;7.07;4.57;;;461.10;1817.60;;;;;;5048906;28;20593;-65
2023/11/20 11:36:16;;;;;;;3.25;1.92;;;461.10;1843.20;;;;;;5049265;28;20032;-65
2023/11/20 11:38:53;;;;;;;4.10;2.42;;;461.20;1817.60;;;;;;5049274;28;20021;-66
2023/11/20 11:41:44;;;;;;;5.95;3.15;;;461.40;1817.60;;;;;;5049058;28;20032;-64
2023/11/20 11:44:45;;;;;;;5.18;3.10;;;461.50;1817.60;;;;;;5049005;28;20078;-65
2023/11/20 11:47:14;;;;;;;6.18;3.25;;;461.70;1817.60;;;;;;5007102;28;20084;-66
2023/11/20 11:49:50;;;;;;;9.98;7.70;;;461.70;1817.60;;;;;;5006834;28;20050;-65
2023/11/20 11:52:27;;;;;;;9.80;6.78;;;461.70;1792.00;;;;;;5007097;28;20030;-67
2023/11/20 11:55:14;;;;;;;8.75;4.63;;;461.70;1792.00;;;;;;5007238;28;20113;-66
2023/11/20 11:57:40;;;;;;;11.20;7.53;;;461.60;1766.40;;;;;;5006868;28;20033;-65
2023/11/20 12:00:21;;;;;;;6.15;4.50;;;486.60;1817.60;;;;;;5006913;28;20491;-65
2023/11/20 12:02:49;;;;;;;17.17;11.23;;;486.60;1792.00;;;;;;5006644;28;20052;-65
2023/11/20 12:05:15;;;;;;;12.27;8.43;;;486.50;1792.00;;;;;;5007072;28;20038;-66
2023/11/20 12:07:43;;;;;;;18.35;11.65;;;486.80;1766.40;;;;;;5006686;28;20025;-65